createdAt,value
2018-06-09T01:09:45.854Z,32.47
2018-06-09T01:12:20.809Z,30.03
2018-06-09T01:14:54.190Z,31.30
2018-06-09T01:17:28.147Z,25.73
2018-06-09T01:20:01.706Z,33.27
2018-06-09T01:25:22.764Z,30.10
2018-06-09T01:27:56.913Z,44.87
2018-06-09T01:30:34.427Z,25.63
2018-06-09T01:33:07.834Z,25.97
2018-06-09T01:35:41.249Z,30.20
2018-06-09T01:38:13.040Z,25.13
2018-06-09T01:40:46.290Z,25.30
2018-06-09T01:43:19.736Z,16.27
2018-06-09T01:45:53.045Z,22.73
2018-06-09T01:48:26.292Z,18.60
2018-06-09T01:50:59.489Z,22.47
2018-06-09T01:53:32.778Z,20.37
2018-06-09T01:56:06.003Z,18.63
2018-06-09T01:58:40.113Z,18.87
2018-06-09T02:01:13.409Z,16.13
2018-06-09T02:03:46.772Z,19.63
2018-06-09T02:06:21.139Z,19.53
2018-06-09T02:08:54.420Z,23.53
2018-06-09T02:11:27.566Z,29.63
2018-06-09T02:14:00.757Z,26.53
2018-06-09T02:16:34.123Z,43.83
2018-06-09T02:19:07.353Z,26.43
2018-06-09T02:21:40.638Z,23.47
2018-06-09T02:24:13.809Z,29.70
2018-06-09T02:26:47.030Z,24.17
2018-06-09T02:29:20.315Z,19.53
2018-06-09T02:31:52.135Z,43.87
2018-06-09T02:34:25.687Z,20.90
2018-06-09T02:37:01.726Z,29.67
2018-06-09T02:39:36.071Z,37.60
2018-06-09T02:42:09.405Z,44.67
2018-06-09T02:44:42.689Z,37.83
2018-06-09T02:47:15.881Z,34.23
2018-06-09T02:49:49.134Z,27.83
2018-06-09T02:52:22.558Z,25.10
2018-06-09T02:54:55.800Z,30.40
2018-06-09T02:57:29.130Z,22.63
2018-06-09T03:00:02.439Z,23.90
2018-06-09T03:02:35.655Z,22.87
2018-06-09T03:05:09.006Z,25.43
2018-06-09T03:07:42.229Z,18.87
2018-06-09T03:10:15.520Z,31.97
2018-06-09T03:12:48.877Z,22.43
2018-06-09T03:15:20.840Z,33.53
2018-06-09T03:17:54.086Z,29.07
2018-06-09T03:20:27.281Z,23.03
2018-06-09T03:23:00.554Z,20.43
2018-06-09T03:25:34.556Z,23.37
2018-06-09T03:28:07.766Z,23.90
2018-06-09T03:30:41.071Z,23.57
2018-06-09T03:33:14.225Z,32.00
2018-06-09T03:35:48.138Z,37.87
2018-06-09T03:38:21.274Z,30.00
2018-06-09T03:40:54.627Z,36.53
2018-06-09T03:43:27.995Z,26.33
2018-06-09T03:46:01.303Z,31.13
2018-06-09T03:48:34.525Z,31.53
2018-06-09T03:51:07.713Z,30.10
2018-06-09T03:53:41.177Z,32.10
2018-06-09T03:56:14.379Z,25.87
2018-06-09T03:58:48.353Z,24.97
2018-06-09T04:01:21.699Z,26.20
2018-06-09T04:03:55.927Z,24.07
2018-06-09T04:06:29.186Z,22.50
2018-06-09T04:09:02.480Z,26.20
2018-06-09T04:11:35.746Z,24.43
2018-06-09T04:14:09.049Z,24.40
2018-06-09T04:16:43.313Z,25.70
2018-06-09T04:19:16.615Z,24.90
2018-06-09T04:21:49.816Z,25.90
2018-06-09T04:24:23.140Z,37.27
2018-06-09T04:26:56.455Z,36.13
2018-06-09T04:29:29.739Z,26.37
2018-06-09T04:32:04.951Z,34.03
2018-06-09T04:34:38.298Z,25.87
2018-06-09T04:37:12.631Z,26.97
2018-06-09T04:39:45.889Z,26.93
2018-06-09T04:42:19.110Z,21.50
2018-06-09T04:44:52.381Z,20.93
2018-06-09T04:47:25.735Z,23.40
2018-06-09T04:49:59.078Z,33.67
2018-06-09T04:52:32.456Z,26.03
2018-06-09T04:55:06.769Z,22.50
2018-06-09T04:57:40.103Z,18.57
2018-06-09T05:00:13.575Z,20.23
2018-06-09T05:02:46.926Z,22.53
2018-06-09T05:05:20.243Z,21.07
2018-06-09T05:07:54.570Z,25.90
2018-06-09T05:10:27.774Z,23.20
2018-06-09T05:13:01.786Z,25.53
2018-06-09T05:15:37.793Z,23.20
2018-06-09T05:18:13.308Z,23.03
2018-06-09T05:20:47.163Z,21.03
2018-06-09T05:23:20.529Z,16.43
2018-06-09T05:25:53.961Z,18.00
2018-06-09T05:28:28.339Z,25.90
2018-06-09T05:31:01.645Z,21.83
2018-06-09T05:33:34.976Z,18.23
2018-06-09T05:36:08.291Z,10.80
2018-06-09T05:38:41.514Z,16.27
2018-06-09T05:41:14.741Z,21.87
2018-06-09T05:43:47.971Z,13.03
2018-06-09T05:46:21.219Z,24.53
2018-06-09T05:48:54.388Z,17.53
2018-06-09T05:51:27.728Z,14.30
2018-06-09T05:54:01.193Z,15.80
2018-06-09T05:56:34.631Z,12.27
2018-06-09T05:59:07.884Z,13.60
2018-06-09T06:01:41.109Z,9.67
2018-06-09T06:04:14.261Z,14.90
2018-06-09T06:06:47.532Z,10.63
2018-06-09T06:09:20.769Z,8.57
2018-06-09T06:11:54.050Z,11.47
2018-06-09T06:14:27.421Z,15.67
2018-06-09T06:17:00.590Z,11.73
2018-06-09T06:19:33.917Z,9.63
2018-06-09T06:22:07.149Z,17.70
2018-06-09T06:24:40.356Z,10.70
2018-06-09T06:27:13.633Z,13.73
2018-06-09T06:29:46.766Z,14.20
2018-06-09T06:32:19.978Z,11.23
2018-06-09T06:34:53.275Z,14.73
2018-06-09T06:37:26.535Z,16.93
2018-06-09T06:40:02.722Z,15.03
2018-06-09T06:42:39.366Z,11.60
2018-06-09T06:45:12.438Z,12.33
2018-06-09T06:47:45.661Z,17.23
2018-06-09T06:50:19.075Z,17.93
2018-06-09T06:52:52.339Z,17.10
2018-06-09T06:55:25.688Z,17.03
2018-06-09T06:57:58.959Z,13.73
2018-06-09T07:00:32.226Z,10.13
2018-06-09T07:03:05.413Z,22.03
2018-06-09T07:05:38.768Z,9.47
2018-06-09T07:08:11.967Z,12.00
2018-06-09T07:10:45.970Z,16.60
2018-06-09T07:13:19.915Z,16.67
2018-06-09T07:15:53.152Z,10.70
2018-06-09T07:18:26.351Z,12.73
2018-06-09T07:21:07.644Z,13.50
2018-06-09T07:23:40.794Z,14.00
2018-06-09T07:26:14.852Z,9.90
2018-06-09T07:28:48.921Z,14.97
2018-06-09T07:31:22.226Z,9.00
2018-06-09T07:33:57.070Z,15.37
2018-06-09T07:36:30.387Z,16.43
2018-06-09T07:39:05.010Z,17.00
2018-06-09T07:41:39.193Z,12.27
2018-06-09T07:44:12.389Z,21.77
2018-06-09T07:46:45.762Z,13.93
2018-06-09T07:49:19.112Z,14.80
2018-06-09T07:51:52.378Z,14.20
2018-06-09T07:54:25.701Z,15.23
2018-06-09T07:56:58.986Z,15.13
2018-06-09T07:59:32.399Z,19.03
2018-06-09T08:02:06.854Z,15.93
2018-06-09T08:04:40.125Z,16.20
2018-06-09T08:07:13.363Z,23.80
2018-06-09T08:09:46.610Z,13.70
2018-06-09T08:12:19.699Z,12.63
2018-06-09T08:14:53.020Z,16.60
2018-06-09T08:17:26.356Z,16.63
2018-06-09T08:19:59.676Z,15.55
2018-06-09T08:22:32.877Z,13.72
2018-06-09T08:25:06.041Z,14.73
2018-06-09T08:27:52.113Z,16.37
2018-06-09T08:30:26.078Z,11.67
2018-06-09T08:32:59.226Z,12.07
2018-06-09T08:35:32.505Z,20.60
2018-06-09T08:38:05.633Z,13.03
2018-06-09T08:40:38.817Z,17.53
2018-06-09T08:43:11.971Z,12.60
2018-06-09T08:45:45.322Z,14.13
2018-06-09T08:48:18.486Z,17.83
2018-06-09T08:50:51.666Z,19.20
2018-06-09T08:53:24.872Z,15.93
2018-06-09T08:55:57.931Z,19.57
2018-06-09T08:58:31.044Z,14.13
2018-06-09T09:01:04.169Z,26.37
2018-06-09T09:03:38.626Z,14.87
2018-06-09T09:06:11.902Z,14.90
2018-06-09T09:08:45.145Z,14.83
2018-06-09T09:11:18.458Z,13.90
2018-06-09T09:13:51.902Z,16.40
2018-06-09T09:16:25.176Z,18.60
2018-06-09T09:18:58.413Z,16.83
2018-06-09T09:21:31.623Z,22.93
2018-06-09T09:24:05.001Z,16.60
2018-06-09T09:26:38.257Z,14.53
2018-06-09T09:29:11.538Z,15.33
2018-06-09T09:31:44.943Z,16.10
2018-06-09T09:34:18.098Z,20.40
2018-06-09T09:36:51.261Z,14.73
2018-06-09T09:39:24.461Z,13.80
2018-06-09T09:41:57.699Z,13.43
2018-06-09T09:44:30.838Z,12.97
2018-06-09T09:47:04.226Z,12.63
2018-06-09T09:49:37.766Z,12.57
2018-06-09T09:52:10.956Z,14.27
2018-06-09T09:54:44.878Z,15.40
2018-06-09T09:57:17.984Z,14.70
2018-06-09T09:59:51.224Z,19.87
2018-06-09T10:02:24.454Z,16.20
2018-06-09T10:04:57.636Z,29.93
2018-06-09T10:07:31.719Z,15.77
2018-06-09T10:10:04.776Z,14.03
2018-06-09T10:12:38.031Z,16.20
2018-06-09T10:15:11.369Z,24.83
2018-06-09T10:17:44.526Z,25.63
2018-06-09T10:20:22.987Z,25.53
2018-06-09T10:22:56.149Z,30.87
2018-06-09T10:25:29.453Z,17.80
2018-06-09T10:28:02.820Z,25.40
2018-06-09T10:30:36.066Z,25.27
2018-06-09T10:33:09.305Z,23.13
2018-06-09T10:35:42.466Z,24.43
2018-06-09T10:38:15.692Z,24.20
2018-06-09T10:40:48.994Z,18.20
2018-06-09T10:43:22.250Z,23.87
2018-06-09T10:45:55.591Z,20.93
2018-06-09T10:48:28.850Z,23.87
2018-06-09T10:51:02.843Z,19.00
2018-06-09T10:53:36.100Z,17.67
2018-06-09T10:56:09.444Z,21.20
2018-06-09T10:58:42.780Z,22.80
2018-06-09T11:01:16.030Z,19.90
2018-06-09T11:03:49.192Z,20.67
2018-06-09T11:06:22.271Z,23.60
2018-06-09T11:08:55.518Z,22.87
2018-06-09T11:11:28.798Z,32.27
2018-06-09T11:14:01.968Z,23.23
2018-06-09T11:16:35.098Z,28.20
2018-06-09T11:19:08.319Z,25.43
2018-06-09T11:21:41.513Z,23.67
2018-06-09T11:24:13.169Z,26.07
2018-06-09T11:26:47.837Z,27.10
2018-06-09T11:29:20.997Z,24.83
2018-06-09T11:31:54.126Z,32.40
2018-06-09T11:34:27.290Z,32.80
2018-06-09T11:37:00.361Z,23.80
2018-06-09T11:39:33.479Z,21.90
2018-06-09T11:42:06.725Z,32.13
2018-06-09T11:44:39.825Z,24.37
2018-06-09T11:47:12.945Z,19.20
2018-06-09T11:49:46.038Z,20.13
2018-06-09T11:52:20.927Z,25.77
2018-06-09T11:54:54.753Z,22.93
2018-06-09T11:57:27.973Z,23.47
2018-06-09T12:00:01.032Z,23.10
2018-06-09T12:02:34.073Z,24.90
2018-06-09T12:05:07.212Z,24.10
2018-06-09T12:07:40.452Z,21.63
2018-06-09T12:10:13.574Z,21.83
2018-06-09T12:12:46.767Z,26.23
2018-06-09T12:15:19.853Z,20.83
2018-06-09T12:17:52.906Z,34.93
2018-06-09T12:20:26.090Z,28.23
2018-06-09T12:22:59.176Z,30.70
2018-06-09T12:25:32.261Z,27.80
2018-06-09T12:28:05.337Z,25.63
2018-06-09T12:30:38.405Z,38.90
2018-06-09T12:33:11.555Z,29.83
2018-06-09T12:35:44.558Z,32.30
2018-06-09T12:38:17.689Z,25.63
2018-06-09T12:40:50.897Z,26.73
2018-06-09T12:43:24.076Z,29.90
2018-06-09T12:45:57.253Z,24.00
2018-06-09T12:48:30.310Z,23.60
2018-06-09T12:51:04.492Z,30.83
2018-06-09T12:53:37.676Z,26.03
2018-06-09T12:56:10.817Z,26.20
2018-06-09T12:58:44.209Z,33.20
2018-06-09T13:01:17.420Z,25.07
2018-06-09T13:03:50.504Z,23.87
2018-06-09T13:06:23.581Z,31.20
2018-06-09T13:08:56.722Z,34.50
2018-06-09T13:11:29.917Z,28.43
2018-06-09T13:14:03.118Z,27.80
2018-06-09T13:16:36.413Z,25.70
2018-06-09T13:19:09.558Z,38.27
2018-06-09T13:21:41.757Z,32.40
2018-06-09T13:24:14.881Z,32.33
2018-06-09T13:26:47.941Z,36.47
2018-06-09T13:29:20.969Z,33.73
2018-06-09T13:31:54.031Z,32.63
2018-06-09T13:34:27.118Z,26.23
2018-06-09T13:37:00.226Z,27.97
2018-06-09T13:39:33.572Z,27.20
2018-06-09T13:42:06.718Z,32.63
2018-06-09T13:44:39.886Z,27.27
2018-06-09T13:47:14.040Z,35.23
2018-06-09T13:49:47.054Z,28.97
2018-06-09T13:52:20.195Z,32.60
2018-06-09T13:54:53.225Z,23.77
2018-06-09T13:57:26.453Z,32.63
2018-06-09T14:00:00.186Z,31.77
2018-06-09T14:02:33.412Z,31.93
2018-06-09T14:05:06.493Z,27.53
2018-06-09T14:07:39.593Z,32.33
2018-06-09T14:10:12.794Z,28.93
2018-06-09T14:12:45.950Z,34.37
2018-06-09T14:15:19.053Z,33.90
2018-06-09T14:17:52.286Z,30.03
2018-06-09T14:20:26.092Z,26.23
2018-06-09T14:22:59.264Z,27.73
2018-06-09T14:25:32.436Z,31.40
2018-06-09T14:28:06.157Z,27.83
2018-06-09T14:30:39.433Z,26.90
2018-06-09T14:33:12.478Z,32.63
2018-06-09T14:35:45.613Z,29.80
2018-06-09T14:38:18.791Z,25.87
2018-06-09T14:40:51.861Z,31.37
2018-06-09T14:43:25.089Z,27.93
2018-06-09T14:45:58.241Z,38.80
2018-06-09T14:48:31.544Z,25.50
2018-06-09T14:51:04.684Z,29.20
2018-06-09T14:53:37.824Z,30.70
2018-06-09T14:56:11.013Z,28.33
2018-06-09T14:58:44.175Z,31.03
2018-06-09T15:01:17.267Z,26.60
2018-06-09T15:03:50.308Z,32.67
2018-06-09T15:06:23.546Z,32.93
2018-06-09T15:08:56.678Z,34.10
2018-06-09T15:11:29.883Z,32.27
2018-06-09T15:14:03.045Z,30.60
2018-06-09T15:16:36.129Z,38.70
2018-06-09T15:19:09.281Z,29.40
2018-06-09T15:21:42.367Z,36.00
2018-06-09T15:24:15.552Z,29.07
2018-06-09T15:26:48.825Z,28.83
2018-06-09T15:29:21.895Z,26.20
2018-06-09T15:31:53.761Z,31.83
2018-06-09T15:34:26.865Z,31.17
2018-06-09T15:36:59.997Z,34.07
2018-06-09T15:39:33.220Z,33.47
2018-06-09T15:42:06.343Z,30.10
2018-06-09T15:44:40.158Z,34.90
2018-06-09T15:47:13.261Z,33.20
2018-06-09T15:49:46.347Z,37.00
2018-06-09T15:52:19.811Z,39.07
2018-06-09T15:54:53.044Z,34.50
2018-06-09T15:57:26.170Z,33.03
2018-06-09T15:59:59.973Z,36.57
2018-06-09T16:02:33.271Z,38.60
2018-06-09T16:05:06.411Z,43.93
2018-06-09T16:07:39.643Z,42.17
2018-06-09T16:10:13.783Z,44.77
2018-06-09T16:12:47.880Z,41.93
2018-06-09T16:15:19.665Z,31.63
2018-06-09T16:17:52.965Z,34.27
2018-06-09T16:20:26.317Z,41.17
2018-06-09T16:22:59.600Z,38.47
2018-06-09T16:25:32.875Z,35.47
2018-06-09T16:28:06.204Z,39.57
2018-06-09T16:30:39.493Z,41.90
2018-06-09T16:33:12.691Z,38.40
2018-06-09T16:35:46.010Z,31.13
2018-06-09T16:38:19.245Z,37.60
2018-06-09T16:40:52.546Z,30.60
2018-06-09T16:43:25.766Z,41.80
2018-06-09T16:45:58.955Z,34.33
2018-06-09T16:48:32.150Z,35.20
2018-06-09T16:51:05.392Z,38.40
2018-06-09T16:53:39.636Z,40.37
2018-06-09T16:56:14.669Z,55.93
2018-06-09T16:58:47.864Z,33.83
2018-06-09T17:01:21.093Z,41.37
2018-06-09T17:03:54.310Z,41.73
2018-06-09T17:06:40.531Z,37.13
2018-06-09T17:09:26.793Z,40.13
2018-06-09T17:11:59.947Z,43.60
2018-06-09T17:14:33.104Z,39.60
2018-06-09T17:17:06.415Z,53.17
2018-06-09T17:19:39.684Z,44.83
2018-06-09T17:22:25.853Z,46.07
2018-06-09T17:24:59.081Z,34.70
2018-06-09T17:27:32.246Z,45.90
2018-06-09T17:30:05.558Z,38.37
2018-06-09T17:32:38.708Z,48.10
2018-06-09T17:35:11.935Z,36.33
2018-06-09T17:37:45.154Z,47.10
2018-06-09T17:40:18.296Z,41.03
2018-06-09T17:42:51.541Z,39.13
2018-06-09T17:45:24.681Z,43.40
2018-06-09T17:47:57.894Z,45.63
2018-06-09T17:50:31.066Z,39.73
2018-06-09T17:53:05.372Z,40.50
2018-06-09T17:55:40.418Z,40.70
2018-06-09T17:58:13.634Z,42.13
2018-06-09T18:00:46.867Z,39.67
2018-06-09T18:03:20.073Z,44.50
2018-06-09T18:05:53.215Z,31.50
2018-06-09T18:08:26.490Z,37.10
2018-06-09T18:10:59.750Z,37.37
2018-06-09T18:13:33.014Z,43.43
2018-06-09T18:16:06.278Z,38.27
2018-06-09T18:18:42.144Z,40.40
2018-06-09T18:21:17.162Z,35.73
2018-06-09T18:23:55.523Z,33.87
2018-06-09T18:26:28.615Z,36.70
2018-06-09T18:29:01.743Z,40.27
2018-06-09T18:31:35.085Z,32.70
2018-06-09T18:34:09.316Z,37.87
2018-06-09T18:36:43.562Z,35.13
2018-06-09T18:39:17.893Z,41.40
2018-06-09T18:41:51.237Z,35.67
2018-06-09T18:44:24.636Z,34.00
2018-06-09T18:47:03.874Z,33.37
2018-06-09T18:49:35.748Z,28.70
2018-06-09T18:52:14.429Z,30.13
2018-06-09T18:54:50.190Z,29.37
2018-06-09T18:57:29.011Z,30.07
2018-06-09T19:00:02.240Z,32.00
2018-06-09T19:02:38.670Z,32.60
2018-06-09T19:05:13.487Z,46.37
2018-06-09T19:07:49.930Z,37.50
2018-06-09T19:10:23.409Z,29.40
2018-06-09T19:12:56.792Z,35.33
2018-06-09T19:15:31.504Z,28.97
2018-06-09T19:18:06.052Z,37.83
2018-06-09T19:20:39.372Z,31.47
2018-06-09T19:23:21.676Z,34.27
2018-06-09T19:25:54.935Z,31.37
2018-06-09T19:28:28.433Z,33.27
2018-06-09T19:31:01.981Z,32.80
2018-06-09T19:33:35.340Z,31.97
2018-06-09T19:36:08.526Z,34.80
2018-06-09T19:38:41.810Z,35.83
2018-06-09T19:41:15.089Z,34.10
2018-06-09T19:43:48.382Z,34.53
2018-06-09T19:46:23.110Z,30.50
2018-06-09T19:48:57.216Z,33.23
2018-06-09T19:51:34.075Z,28.17
2018-06-09T19:54:08.293Z,32.73
2018-06-09T19:56:44.817Z,30.73
2018-06-09T19:59:18.076Z,30.63
2018-06-09T20:01:51.329Z,27.97
2018-06-09T20:04:25.033Z,30.23
2018-06-09T20:06:58.337Z,40.13
2018-06-09T20:09:31.944Z,37.60
2018-06-09T20:12:06.954Z,28.77
2018-06-09T20:14:41.220Z,30.80
2018-06-09T20:17:14.582Z,30.40
2018-06-09T20:19:49.900Z,41.50
2018-06-09T20:22:23.513Z,32.10
2018-06-09T20:24:58.888Z,30.10
2018-06-09T20:27:32.293Z,24.93
2018-06-09T20:30:06.792Z,29.23
2018-06-09T20:32:39.982Z,32.20
2018-06-09T20:35:13.417Z,30.30
2018-06-09T20:37:45.121Z,34.77
2018-06-09T20:40:18.355Z,30.60
2018-06-09T20:42:54.077Z,41.67
2018-06-09T20:45:28.070Z,40.50
2018-06-09T20:48:01.346Z,29.50
2018-06-09T20:50:34.938Z,42.03
2018-06-09T20:53:09.289Z,33.37
2018-06-09T20:55:42.837Z,31.70
2018-06-09T20:58:18.580Z,36.90
2018-06-09T21:00:50.323Z,37.67
2018-06-09T21:03:23.600Z,42.70
2018-06-09T21:05:56.971Z,36.17
2018-06-09T21:08:30.288Z,45.50
2018-06-09T21:11:03.470Z,42.60
2018-06-09T21:13:36.848Z,31.67
2018-06-09T21:16:10.110Z,36.23
2018-06-09T21:18:43.251Z,36.37
2018-06-09T21:21:16.585Z,32.67
2018-06-09T21:23:49.847Z,40.20
2018-06-09T21:26:22.997Z,31.73
2018-06-09T21:28:57.626Z,37.13
2018-06-09T21:31:36.003Z,47.83
2018-06-09T21:34:18.431Z,45.57
2018-06-09T21:36:55.617Z,40.13
2018-06-09T21:39:34.481Z,33.53
2018-06-09T21:42:11.909Z,27.33
2018-06-09T21:44:50.772Z,25.93
2018-06-09T21:47:23.974Z,37.17
2018-06-09T21:49:57.266Z,32.67
2018-06-09T21:52:30.608Z,39.40
2018-06-09T21:55:03.923Z,33.00
2018-06-09T21:57:35.632Z,28.37
2018-06-09T22:00:10.407Z,31.50
2018-06-09T22:02:43.659Z,29.87
2018-06-09T22:05:16.817Z,23.00
2018-06-09T22:07:49.980Z,16.80
2018-06-09T22:10:23.051Z,24.13
2018-06-09T22:12:56.209Z,19.93
2018-06-09T22:15:29.434Z,25.77
2018-06-09T22:18:02.573Z,26.90
2018-06-09T22:20:35.879Z,26.80
2018-06-09T22:23:09.126Z,20.00
2018-06-09T22:25:46.471Z,27.73
2018-06-09T22:28:19.718Z,20.03
2018-06-09T22:30:52.872Z,27.30
2018-06-09T22:33:26.122Z,21.10
2018-06-09T22:35:59.399Z,22.90
2018-06-09T22:38:32.589Z,20.93
2018-06-09T22:41:06.139Z,14.57
2018-06-09T22:43:39.417Z,17.00
2018-06-09T22:46:12.705Z,14.67
2018-06-09T22:48:46.008Z,18.03
2018-06-09T22:51:19.972Z,25.87
2018-06-09T22:53:53.226Z,22.30
2018-06-09T22:56:26.521Z,17.93
2018-06-09T22:58:59.769Z,21.70
2018-06-09T23:01:33.027Z,31.23
2018-06-09T23:04:06.291Z,50.70
2018-06-09T23:06:39.530Z,26.40
2018-06-09T23:09:13.109Z,29.47
2018-06-09T23:11:46.236Z,26.33
2018-06-09T23:14:19.399Z,24.30
2018-06-09T23:16:52.550Z,21.23
2018-06-09T23:19:29.295Z,29.77
2018-06-09T23:22:02.886Z,19.53
2018-06-09T23:24:53.539Z,23.40
2018-06-09T23:27:29.245Z,25.20
2018-06-09T23:30:11.273Z,27.03
2018-06-09T23:32:46.130Z,27.70
2018-06-09T23:35:27.019Z,23.83
2018-06-09T23:38:17.860Z,28.47
2018-06-09T23:40:51.765Z,24.77
2018-06-09T23:43:25.956Z,32.33
2018-06-09T23:45:59.331Z,27.60
2018-06-09T23:48:32.468Z,25.13
2018-06-09T23:51:05.729Z,20.30
2018-06-09T23:53:42.815Z,38.20
2018-06-09T23:56:23.380Z,27.00
2018-06-09T23:59:01.911Z,34.37
